KSBD/SBD METAR and TAF weather

Enter ICAO airport designator
Station Type Date Time Source
KSBD METAR 2023/02/05 23:55 UTC NOAA

KSBD 052355Z 27004KT 7SM SCT043 BKN049 16/05 A3013


Station Type Date Time Source
KSBD Decoded METAR 2023/02/05 23:55 UTC NOAA

Norton Air Force Base / San Bern, CA, United States (KSBD) 34-06N 117-14W
Feb 05, 2023 - 06:55 PM EST / 2023.02.05 2355 UTC
Wind: from the W (270 degrees) at 5 MPH (4 KT):0
Visibility: 7 mile(s):0
Sky conditions: mostly cloudy
Temperature: 60 F (16 C)
Dew Point: 41 F (5 C)
Relative Humidity: 47%
Pressure (altimeter): 30.13 in. Hg (1020 hPa)
ob: KSBD 052355Z 27004KT 7SM SCT043 BKN049 16/05 A3013
cycle: 0

Station Type Date Time Source
KSBD TAF 2023/02/05 18:48 UTC NOAA

TAF KSBD 051747Z 0518/0618 VRB04KT 4SM HZ BKN025 OVC030
FM052100 25012KT P6SM SCT020
FM060500 VRB05KT P6SM FEW040
FM060900 35011KT P6SM SKC

Example: see airport list